Terminal Aerodrome Forecast
Issued by NWS

Home | Current Version | Previous Version | Text Only | Print | Product List | Glossary On
Versions: 1 2 3 4 5 6 7 8 9 10 11 12 13
000
FTUS44 KMOB 260023 CCA
TAFBFM
TAF COR
KBFM 260023Z 2600/2624 12012KT P6SM VCSH SCT035
     FM260800 11008KT P6SM VCSH BKN025
     FM261200 13010KT 5SM -SHRA BKN025 OVC035
     FM261600 16011G20KT 4SM TSRA BKN025CB OVC035=

USA.gov is the U.S. government's official web portal to all federal, state and local government web resources and services.